sensor_id;sensor_type;location;lat;lon;timestamp;temperature;humidity
35425;DHT22;21537;48.226;16.400;2022-09-03T00:00:34;15.20;99.90
35425;DHT22;21537;48.226;16.400;2022-09-03T00:03:07;15.20;99.90
35425;DHT22;21537;48.226;16.400;2022-09-03T00:08:29;15.20;99.90
35425;DHT22;21537;48.226;16.400;2022-09-03T00:11:10;15.10;99.90
35425;DHT22;21537;48.226;16.400;2022-09-03T00:13:50;15.00;99.90
35425;DHT22;21537;48.226;16.400;2022-09-03T00:16:21;15.00;99.90
35425;DHT22;21537;48.226;16.400;2022-09-03T00:19:00;14.90;99.90
35425;DHT22;21537;48.226;16.400;2022-09-03T00:21:42;14.90;99.90
35425;DHT22;21537;48.226;16.400;2022-09-03T00:24:12;14.90;99.90
35425;DHT22;21537;48.226;16.400;2022-09-03T00:26:46;14.90;99.90
35425;DHT22;21537;48.226;16.400;2022-09-03T00:32:33;14.80;99.90
35425;DHT22;21537;48.226;16.400;2022-09-03T00:35:03;14.70;99.90
35425;DHT22;21537;48.226;16.400;2022-09-03T00:37:32;14.70;99.90
35425;DHT22;21537;48.226;16.400;2022-09-03T00:39:59;14.60;99.90
35425;DHT22;21537;48.226;16.400;2022-09-03T00:42:46;14.60;99.90
35425;DHT22;21537;48.226;16.400;2022-09-03T00:46:12;14.50;99.90
35425;DHT22;21537;48.226;16.400;2022-09-03T00:48:20;14.50;99.90
35425;DHT22;21537;48.226;16.400;2022-09-03T00:53:33;14.40;99.90
35425;DHT22;21537;48.226;16.400;2022-09-03T01:01:45;14.40;99.90
35425;DHT22;21537;48.226;16.400;2022-09-03T01:04:26;14.30;99.90
35425;DHT22;21537;48.226;16.400;2022-09-03T01:09:56;14.20;99.90
35425;DHT22;21537;48.226;16.400;2022-09-03T01:12:59;14.20;99.90
35425;DHT22;21537;48.226;16.400;2022-09-03T01:18:06;14.10;99.90
35425;DHT22;21537;48.226;16.400;2022-09-03T01:29:23;14.00;99.90
35425;DHT22;21537;48.226;16.400;2022-09-03T01:32:10;14.00;99.90
35425;DHT22;21537;48.226;16.400;2022-09-03T01:34:49;13.90;99.90
35425;DHT22;21537;48.226;16.400;2022-09-03T01:51:23;13.70;99.90
35425;DHT22;21537;48.226;16.400;2022-09-03T01:59:48;13.70;99.90
35425;DHT22;21537;48.226;16.400;2022-09-03T02:02:20;13.70;99.90
35425;DHT22;21537;48.226;16.400;2022-09-03T02:07:43;13.60;99.90
35425;DHT22;21537;48.226;16.400;2022-09-03T02:10:19;13.60;99.90
35425;DHT22;21537;48.226;16.400;2022-09-03T02:12:48;13.60;99.90
35425;DHT22;21537;48.226;16.400;2022-09-03T02:15:19;13.70;99.90
35425;DHT22;21537;48.226;16.400;2022-09-03T02:17:47;13.70;99.90
35425;DHT22;21537;48.226;16.400;2022-09-03T02:20:22;13.60;99.90
35425;DHT22;21537;48.226;16.400;2022-09-03T02:22:48;13.60;99.90
35425;DHT22;21537;48.226;16.400;2022-09-03T02:25:16;13.60;99.90
35425;DHT22;21537;48.226;16.400;2022-09-03T02:27:43;13.60;99.90
35425;DHT22;21537;48.226;16.400;2022-09-03T02:30:10;13.60;99.90
35425;DHT22;21537;48.226;16.400;2022-09-03T02:32:37;13.60;99.90
35425;DHT22;21537;48.226;16.400;2022-09-03T02:35:03;13.60;99.90
35425;DHT22;21537;48.226;16.400;2022-09-03T02:37:29;13.60;99.90
35425;DHT22;21537;48.226;16.400;2022-09-03T02:39:55;13.60;99.90
35425;DHT22;21537;48.226;16.400;2022-09-03T02:42:21;13.60;99.90
35425;DHT22;21537;48.226;16.400;2022-09-03T02:44:54;13.50;99.90
35425;DHT22;21537;48.226;16.400;2022-09-03T02:47:22;13.50;99.90
35425;DHT22;21537;48.226;16.400;2022-09-03T02:49:48;13.40;99.90
35425;DHT22;21537;48.226;16.400;2022-09-03T02:52:14;13.40;99.90
35425;DHT22;21537;48.226;16.400;2022-09-03T02:54:40;13.50;99.90
35425;DHT22;21537;48.226;16.400;2022-09-03T02:57:12;13.40;99.90
35425;DHT22;21537;48.226;16.400;2022-09-03T02:59:39;13.50;99.90
35425;DHT22;21537;48.226;16.400;2022-09-03T03:02:06;13.40;99.90
35425;DHT22;21537;48.226;16.400;2022-09-03T03:04:32;13.30;99.90
35425;DHT22;21537;48.226;16.400;2022-09-03T03:06:58;13.30;99.90
35425;DHT22;21537;48.226;16.400;2022-09-03T03:09:24;13.30;99.90
35425;DHT22;21537;48.226;16.400;2022-09-03T03:11:49;13.30;99.90
35425;DHT22;21537;48.226;16.400;2022-09-03T03:14:18;13.30;99.90
35425;DHT22;21537;48.226;16.400;2022-09-03T03:16:44;13.30;99.90
35425;DHT22;21537;48.226;16.400;2022-09-03T03:19:10;13.20;99.90
35425;DHT22;21537;48.226;16.400;2022-09-03T03:21:36;13.20;99.90
35425;DHT22;21537;48.226;16.400;2022-09-03T03:24:02;13.20;99.90
35425;DHT22;21537;48.226;16.400;2022-09-03T03:26:28;13.10;99.90
35425;DHT22;21537;48.226;16.400;2022-09-03T03:28:59;13.10;99.90
35425;DHT22;21537;48.226;16.400;2022-09-03T03:31:25;13.10;99.90
35425;DHT22;21537;48.226;16.400;2022-09-03T03:33:57;13.00;99.90
35425;DHT22;21537;48.226;16.400;2022-09-03T03:36:25;13.00;99.90
35425;DHT22;21537;48.226;16.400;2022-09-03T03:38:55;12.90;99.90
35425;DHT22;21537;48.226;16.400;2022-09-03T03:41:29;12.90;99.90
35425;DHT22;21537;48.226;16.400;2022-09-03T03:44:03;13.00;99.90
35425;DHT22;21537;48.226;16.400;2022-09-03T03:46:38;12.90;99.90
35425;DHT22;21537;48.226;16.400;2022-09-03T03:49:05;12.90;99.90
35425;DHT22;21537;48.226;16.400;2022-09-03T03:51:31;12.90;99.90
35425;DHT22;21537;48.226;16.400;2022-09-03T03:53:57;12.90;99.90
35425;DHT22;21537;48.226;16.400;2022-09-03T03:56:25;12.90;99.90
35425;DHT22;21537;48.226;16.400;2022-09-03T03:58:51;12.80;99.90
35425;DHT22;21537;48.226;16.400;2022-09-03T04:01:22;12.80;99.90
35425;DHT22;21537;48.226;16.400;2022-09-03T04:03:49;12.70;99.90
35425;DHT22;21537;48.226;16.400;2022-09-03T04:06:17;12.70;99.90
35425;DHT22;21537;48.226;16.400;2022-09-03T04:08:45;12.80;99.90
35425;DHT22;21537;48.226;16.400;2022-09-03T04:11:14;12.70;99.90
35425;DHT22;21537;48.226;16.400;2022-09-03T04:13:41;12.70;99.90
35425;DHT22;21537;48.226;16.400;2022-09-03T04:18:36;12.70;99.90
35425;DHT22;21537;48.226;16.400;2022-09-03T04:21:05;12.70;99.90
35425;DHT22;21537;48.226;16.400;2022-09-03T04:23:39;12.70;99.90
35425;DHT22;21537;48.226;16.400;2022-09-03T04:26:07;12.70;99.90
35425;DHT22;21537;48.226;16.400;2022-09-03T04:28:33;12.60;99.90
35425;DHT22;21537;48.226;16.400;2022-09-03T04:31:04;12.70;99.90
35425;DHT22;21537;48.226;16.400;2022-09-03T04:33:31;12.70;99.90
35425;DHT22;21537;48.226;16.400;2022-09-03T04:38:28;12.70;99.90
35425;DHT22;21537;48.226;16.400;2022-09-03T04:40:56;12.70;99.90
35425;DHT22;21537;48.226;16.400;2022-09-03T04:43:22;12.70;99.90
35425;DHT22;21537;48.226;16.400;2022-09-03T04:45:47;12.70;99.90
35425;DHT22;21537;48.226;16.400;2022-09-03T04:48:13;12.80;99.90
35425;DHT22;21537;48.226;16.400;2022-09-03T04:50:39;12.80;99.90
35425;DHT22;21537;48.226;16.400;2022-09-03T04:53:06;12.80;99.90
35425;DHT22;21537;48.226;16.400;2022-09-03T04:55:35;12.80;99.90
35425;DHT22;21537;48.226;16.400;2022-09-03T04:58:02;12.90;99.90
35425;DHT22;21537;48.226;16.400;2022-09-03T05:00:28;12.80;99.90
35425;DHT22;21537;48.226;16.400;2022-09-03T05:02:53;12.90;99.90
35425;DHT22;21537;48.226;16.400;2022-09-03T05:05:19;13.00;99.90
35425;DHT22;21537;48.226;16.400;2022-09-03T05:07:46;13.00;99.90
35425;DHT22;21537;48.226;16.400;2022-09-03T05:10:13;13.00;99.90
35425;DHT22;21537;48.226;16.400;2022-09-03T05:12:56;13.10;99.90
35425;DHT22;21537;48.226;16.400;2022-09-03T05:15:22;13.20;99.90
35425;DHT22;21537;48.226;16.400;2022-09-03T05:17:48;13.20;99.90
35425;DHT22;21537;48.226;16.400;2022-09-03T05:20:17;13.30;99.90
35425;DHT22;21537;48.226;16.400;2022-09-03T05:22:43;13.30;99.90
35425;DHT22;21537;48.226;16.400;2022-09-03T05:25:09;13.40;99.90
35425;DHT22;21537;48.226;16.400;2022-09-03T05:27:34;13.50;99.90
35425;DHT22;21537;48.226;16.400;2022-09-03T05:30:00;13.60;99.90
35425;DHT22;21537;48.226;16.400;2022-09-03T05:32:29;13.60;99.90
35425;DHT22;21537;48.226;16.400;2022-09-03T05:34:55;13.70;99.90
35425;DHT22;21537;48.226;16.400;2022-09-03T05:37:21;13.80;99.90
35425;DHT22;21537;48.226;16.400;2022-09-03T05:39:48;13.90;99.90
35425;DHT22;21537;48.226;16.400;2022-09-03T05:42:14;14.00;99.90
35425;DHT22;21537;48.226;16.400;2022-09-03T05:44:39;14.10;99.90
35425;DHT22;21537;48.226;16.400;2022-09-03T05:47:06;14.20;99.90
35425;DHT22;21537;48.226;16.400;2022-09-03T05:49:31;14.20;99.90
35425;DHT22;21537;48.226;16.400;2022-09-03T05:51:57;14.30;99.90
35425;DHT22;21537;48.226;16.400;2022-09-03T05:54:23;14.40;99.90
35425;DHT22;21537;48.226;16.400;2022-09-03T05:56:49;14.50;99.90
35425;DHT22;21537;48.226;16.400;2022-09-03T05:59:15;14.60;99.90
35425;DHT22;21537;48.226;16.400;2022-09-03T06:01:42;14.70;99.90
35425;DHT22;21537;48.226;16.400;2022-09-03T06:04:11;14.80;99.90
35425;DHT22;21537;48.226;16.400;2022-09-03T06:06:42;14.80;99.90
35425;DHT22;21537;48.226;16.400;2022-09-03T06:09:13;15.00;99.90
35425;DHT22;21537;48.226;16.400;2022-09-03T06:11:41;15.00;99.90
35425;DHT22;21537;48.226;16.400;2022-09-03T06:14:09;15.10;99.90
35425;DHT22;21537;48.226;16.400;2022-09-03T06:16:41;15.10;99.90
35425;DHT22;21537;48.226;16.400;2022-09-03T06:19:08;15.20;99.90
35425;DHT22;21537;48.226;16.400;2022-09-03T06:21:47;15.20;99.90
35425;DHT22;21537;48.226;16.400;2022-09-03T06:24:28;15.30;99.90
35425;DHT22;21537;48.226;16.400;2022-09-03T06:26:55;15.50;99.90
35425;DHT22;21537;48.226;16.400;2022-09-03T06:29:21;15.60;99.90
35425;DHT22;21537;48.226;16.400;2022-09-03T06:31:47;15.70;99.90
35425;DHT22;21537;48.226;16.400;2022-09-03T06:34:13;16.00;99.90
35425;DHT22;21537;48.226;16.400;2022-09-03T06:36:40;16.10;99.90
35425;DHT22;21537;48.226;16.400;2022-09-03T06:39:06;16.20;99.90
35425;DHT22;21537;48.226;16.400;2022-09-03T06:41:33;16.30;99.90
35425;DHT22;21537;48.226;16.400;2022-09-03T06:44:05;16.30;99.90
35425;DHT22;21537;48.226;16.400;2022-09-03T06:46:37;16.30;99.90
35425;DHT22;21537;48.226;16.400;2022-09-03T06:49:03;16.40;99.90
35425;DHT22;21537;48.226;16.400;2022-09-03T06:51:31;16.50;99.90
35425;DHT22;21537;48.226;16.400;2022-09-03T06:54:08;16.50;99.90
35425;DHT22;21537;48.226;16.400;2022-09-03T06:56:38;16.50;99.90
35425;DHT22;21537;48.226;16.400;2022-09-03T06:59:12;16.70;99.90
35425;DHT22;21537;48.226;16.400;2022-09-03T07:01:39;16.80;99.90
35425;DHT22;21537;48.226;16.400;2022-09-03T07:04:06;16.90;99.90
35425;DHT22;21537;48.226;16.400;2022-09-03T07:06:37;17.00;99.90
35425;DHT22;21537;48.226;16.400;2022-09-03T07:09:09;17.00;99.90
35425;DHT22;21537;48.226;16.400;2022-09-03T07:11:36;17.00;99.90
35425;DHT22;21537;48.226;16.400;2022-09-03T07:14:04;17.00;99.90
35425;DHT22;21537;48.226;16.400;2022-09-03T07:16:35;17.10;99.90
35425;DHT22;21537;48.226;16.400;2022-09-03T07:19:01;17.10;99.90
35425;DHT22;21537;48.226;16.400;2022-09-03T07:21:29;17.10;99.90
35425;DHT22;21537;48.226;16.400;2022-09-03T07:23:56;17.20;99.90
35425;DHT22;21537;48.226;16.400;2022-09-03T07:26:24;17.30;99.90
35425;DHT22;21537;48.226;16.400;2022-09-03T07:28:51;17.40;99.90
35425;DHT22;21537;48.226;16.400;2022-09-03T07:31:30;17.50;99.90
35425;DHT22;21537;48.226;16.400;2022-09-03T07:34:01;17.50;99.90
35425;DHT22;21537;48.226;16.400;2022-09-03T07:36:34;17.60;99.90
35425;DHT22;21537;48.226;16.400;2022-09-03T07:39:02;17.70;99.90
35425;DHT22;21537;48.226;16.400;2022-09-03T07:41:28;17.70;99.90
35425;DHT22;21537;48.226;16.400;2022-09-03T07:43:57;17.80;99.90
35425;DHT22;21537;48.226;16.400;2022-09-03T07:46:25;18.10;99.90
35425;DHT22;21537;48.226;16.400;2022-09-03T07:48:56;18.10;99.90
35425;DHT22;21537;48.226;16.400;2022-09-03T07:51:25;18.30;99.90
35425;DHT22;21537;48.226;16.400;2022-09-03T07:53:54;18.40;99.90
35425;DHT22;21537;48.226;16.400;2022-09-03T07:56:21;18.40;99.90
35425;DHT22;21537;48.226;16.400;2022-09-03T07:58:47;18.40;99.90
35425;DHT22;21537;48.226;16.400;2022-09-03T08:01:15;18.40;99.90
35425;DHT22;21537;48.226;16.400;2022-09-03T08:03:43;18.40;99.90
35425;DHT22;21537;48.226;16.400;2022-09-03T08:06:10;18.50;99.90
35425;DHT22;21537;48.226;16.400;2022-09-03T08:08:36;18.60;99.90
35425;DHT22;21537;48.226;16.400;2022-09-03T08:11:04;18.80;99.90
35425;DHT22;21537;48.226;16.400;2022-09-03T08:13:43;18.80;99.90
35425;DHT22;21537;48.226;16.400;2022-09-03T08:16:10;18.90;99.90
35425;DHT22;21537;48.226;16.400;2022-09-03T08:18:37;18.80;99.90
35425;DHT22;21537;48.226;16.400;2022-09-03T08:21:09;18.70;99.90
35425;DHT22;21537;48.226;16.400;2022-09-03T08:23:39;18.90;99.90
35425;DHT22;21537;48.226;16.400;2022-09-03T08:26:06;19.10;99.90
35425;DHT22;21537;48.226;16.400;2022-09-03T08:28:33;19.30;99.90
35425;DHT22;21537;48.226;16.400;2022-09-03T08:48:47;20.40;99.90
35425;DHT22;21537;48.226;16.400;2022-09-03T08:56:59;20.80;99.90
35425;DHT22;21537;48.226;16.400;2022-09-03T09:04:57;21.20;99.90
35425;DHT22;21537;48.226;16.400;2022-09-03T09:42:09;27.60;92.10
35425;DHT22;21537;48.226;16.400;2022-09-03T10:27:50;37.10;58.90
35425;DHT22;21537;48.226;16.400;2022-09-03T12:22:41;38.10;51.90
35425;DHT22;21537;48.226;16.400;2022-09-03T12:33:57;36.30;53.00
35425;DHT22;21537;48.226;16.400;2022-09-03T12:40:55;35.80;53.90
35425;DHT22;21537;48.226;16.400;2022-09-03T12:59:03;36.40;52.30
35425;DHT22;21537;48.226;16.400;2022-09-03T13:06:00;36.10;53.30
35425;DHT22;21537;48.226;16.400;2022-09-03T14:07:23;35.00;53.30
35425;DHT22;21537;48.226;16.400;2022-09-03T14:27:07;35.20;53.80
35425;DHT22;21537;48.226;16.400;2022-09-03T14:33:49;35.20;53.50
35425;DHT22;21537;48.226;16.400;2022-09-03T14:41:58;31.50;57.80
35425;DHT22;21537;48.226;16.400;2022-09-03T14:50:49;29.80;60.30
35425;DHT22;21537;48.226;16.400;2022-09-03T14:55:56;28.80;62.00
35425;DHT22;21537;48.226;16.400;2022-09-03T15:01:21;28.20;63.20
35425;DHT22;21537;48.226;16.400;2022-09-03T15:12:02;27.80;64.40
35425;DHT22;21537;48.226;16.400;2022-09-03T15:14:48;27.70;64.50
35425;DHT22;21537;48.226;16.400;2022-09-03T15:26:16;26.90;66.70
35425;DHT22;21537;48.226;16.400;2022-09-03T15:35:05;26.60;67.40
35425;DHT22;21537;48.226;16.400;2022-09-03T15:37:51;26.40;67.70
35425;DHT22;21537;48.226;16.400;2022-09-03T15:40:31;26.10;68.30
35425;DHT22;21537;48.226;16.400;2022-09-03T15:43:20;26.00;69.10
35425;DHT22;21537;48.226;16.400;2022-09-03T15:45:50;25.70;69.50
35425;DHT22;21537;48.226;16.400;2022-09-03T15:57:50;25.20;71.40
35425;DHT22;21537;48.226;16.400;2022-09-03T16:00:19;25.20;72.00
35425;DHT22;21537;48.226;16.400;2022-09-03T16:03:00;25.10;72.20
35425;DHT22;21537;48.226;16.400;2022-09-03T16:05:46;25.10;72.60
35425;DHT22;21537;48.226;16.400;2022-09-03T16:08:39;25.00;72.60
35425;DHT22;21537;48.226;16.400;2022-09-03T16:22:05;24.80;73.50
35425;DHT22;21537;48.226;16.400;2022-09-03T16:27:10;24.70;73.30
35425;DHT22;21537;48.226;16.400;2022-09-03T16:29:40;24.70;73.70
35425;DHT22;21537;48.226;16.400;2022-09-03T16:35:09;24.50;74.30
35425;DHT22;21537;48.226;16.400;2022-09-03T16:46:22;24.20;75.80
35425;DHT22;21537;48.226;16.400;2022-09-03T16:51:39;24.00;76.50
35425;DHT22;21537;48.226;16.400;2022-09-03T17:00:00;23.80;78.00
35425;DHT22;21537;48.226;16.400;2022-09-03T17:10:20;23.40;81.00
35425;DHT22;21537;48.226;16.400;2022-09-03T17:13:10;23.30;81.20
35425;DHT22;21537;48.226;16.400;2022-09-03T17:15:51;23.20;81.90
35425;DHT22;21537;48.226;16.400;2022-09-03T17:21:30;23.10;82.70
35425;DHT22;21537;48.226;16.400;2022-09-03T17:29:44;22.90;83.80
35425;DHT22;21537;48.226;16.400;2022-09-03T17:35:16;22.90;84.00
35425;DHT22;21537;48.226;16.400;2022-09-03T17:46:44;22.70;86.00
35425;DHT22;21537;48.226;16.400;2022-09-03T17:49:22;22.70;86.50
35425;DHT22;21537;48.226;16.400;2022-09-03T17:57:21;22.50;87.90
35425;DHT22;21537;48.226;16.400;2022-09-03T18:00:03;22.40;88.50
35425;DHT22;21537;48.226;16.400;2022-09-03T18:02:55;22.40;88.90
35425;DHT22;21537;48.226;16.400;2022-09-03T18:10:59;22.30;90.10
35425;DHT22;21537;48.226;16.400;2022-09-03T18:13:45;22.20;90.30
35425;DHT22;21537;48.226;16.400;2022-09-03T18:16:28;22.20;90.50
35425;DHT22;21537;48.226;16.400;2022-09-03T18:19:02;22.10;90.70
35425;DHT22;21537;48.226;16.400;2022-09-03T18:21:36;22.10;91.00
35425;DHT22;21537;48.226;16.400;2022-09-03T18:24:28;22.10;91.30
35425;DHT22;21537;48.226;16.400;2022-09-03T18:27:28;22.00;91.60
35425;DHT22;21537;48.226;16.400;2022-09-03T18:30:15;22.00;92.00
35425;DHT22;21537;48.226;16.400;2022-09-03T18:33:00;21.90;92.40
35425;DHT22;21537;48.226;16.400;2022-09-03T18:35:46;21.90;92.80
35425;DHT22;21537;48.226;16.400;2022-09-03T18:38:33;21.90;93.20
35425;DHT22;21537;48.226;16.400;2022-09-03T18:41:39;21.80;93.60
35425;DHT22;21537;48.226;16.400;2022-09-03T18:50:37;21.70;94.70
35425;DHT22;21537;48.226;16.400;2022-09-03T18:53:40;21.60;95.10
35425;DHT22;21537;48.226;16.400;2022-09-03T18:56:47;21.70;95.50
35425;DHT22;21537;48.226;16.400;2022-09-03T19:00:01;21.60;95.80
35425;DHT22;21537;48.226;16.400;2022-09-03T19:03:02;21.60;96.20
35425;DHT22;21537;48.226;16.400;2022-09-03T19:15:27;21.50;97.20
35425;DHT22;21537;48.226;16.400;2022-09-03T19:21:27;21.50;97.80
35425;DHT22;21537;48.226;16.400;2022-09-03T19:24:12;21.50;98.10
35425;DHT22;21537;48.226;16.400;2022-09-03T19:27:05;21.50;98.40
35425;DHT22;21537;48.226;16.400;2022-09-03T19:54:54;21.20;99.90
35425;DHT22;21537;48.226;16.400;2022-09-03T19:57:43;21.20;99.90
35425;DHT22;21537;48.226;16.400;2022-09-03T20:00:30;21.10;99.90
35425;DHT22;21537;48.226;16.400;2022-09-03T20:03:15;21.10;99.90
35425;DHT22;21537;48.226;16.400;2022-09-03T20:06:02;21.10;99.90
35425;DHT22;21537;48.226;16.400;2022-09-03T20:08:48;21.00;99.90
35425;DHT22;21537;48.226;16.400;2022-09-03T20:11:34;21.00;99.90
35425;DHT22;21537;48.226;16.400;2022-09-03T20:14:02;21.00;99.90
35425;DHT22;21537;48.226;16.400;2022-09-03T20:19:45;21.00;99.90
35425;DHT22;21537;48.226;16.400;2022-09-03T20:22:29;21.00;99.90
35425;DHT22;21537;48.226;16.400;2022-09-03T20:30:49;20.90;99.90
35425;DHT22;21537;48.226;16.400;2022-09-03T20:37:31;20.80;99.90
35425;DHT22;21537;48.226;16.400;2022-09-03T20:49:22;20.70;99.90
35425;DHT22;21537;48.226;16.400;2022-09-03T20:55:15;20.60;99.90
35425;DHT22;21537;48.226;16.400;2022-09-03T20:58:38;20.50;99.90
35425;DHT22;21537;48.226;16.400;2022-09-03T21:19:03;20.30;99.90
35425;DHT22;21537;48.226;16.400;2022-09-03T21:39:43;20.20;99.90
35425;DHT22;21537;48.226;16.400;2022-09-03T21:43:15;20.10;99.90
35425;DHT22;21537;48.226;16.400;2022-09-03T21:46:46;20.10;99.90
35425;DHT22;21537;48.226;16.400;2022-09-03T22:12:05;20.10;99.90
35425;DHT22;21537;48.226;16.400;2022-09-03T22:15:21;20.10;99.90
35425;DHT22;21537;48.226;16.400;2022-09-03T22:18:55;20.10;99.90
35425;DHT22;21537;48.226;16.400;2022-09-03T22:22:28;20.10;99.90
35425;DHT22;21537;48.226;16.400;2022-09-03T22:56:03;20.00;99.90
35425;DHT22;21537;48.226;16.400;2022-09-03T22:59:35;20.00;99.90
35425;DHT22;21537;48.226;16.400;2022-09-03T23:09:56;20.00;99.90
35425;DHT22;21537;48.226;16.400;2022-09-03T23:13:13;20.00;99.90
35425;DHT22;21537;48.226;16.400;2022-09-03T23:19:49;20.00;99.90
35425;DHT22;21537;48.226;16.400;2022-09-03T23:25:39;19.80;99.90
35425;DHT22;21537;48.226;16.400;2022-09-03T23:32:10;19.70;99.90
35425;DHT22;21537;48.226;16.400;2022-09-03T23:35:15;19.60;99.90
35425;DHT22;21537;48.226;16.400;2022-09-03T23:38:20;19.60;99.90
35425;DHT22;21537;48.226;16.400;2022-09-03T23:44:43;19.60;99.90
35425;DHT22;21537;48.226;16.400;2022-09-03T23:58:23;19.40;99.90
